Terminal Aerodrome Forecast
Issued by NWS

Home | Current Version | Previous Version | Text Only | Print | Product List | Glossary On
Versions: 1 2 3 4 5 6 7 8 9 10 11 12 13 14 15 16 17 18 19 20 21
000
FTUS46 KEKA 280520
TAFCEC
TAF
KCEC 280520Z 2806/2906 VRB04KT P6SM FEW015
      TEMPO 2806/2808 6SM BR BKN015
     FM280800 VRB03KT 3SM BR BKN007 OVC012
     FM281300 VRB03KT 1SM BR OVC007
     FM281500 32008KT 3SM BR BKN010
     FM281800 32010KT 6SM HZ SCT015=

USA.gov is the U.S. government's official web portal to all federal, state and local government web resources and services.